createdAt,value
2022-11-16T00:01:57.325Z,11.36
2022-11-16T00:04:25.318Z,11.90
2022-11-16T00:06:53.318Z,11.96
2022-11-16T00:09:26.916Z,12.38
2022-11-16T00:11:57.061Z,12.60
2022-11-16T00:14:27.077Z,12.54
2022-11-16T00:16:57.204Z,12.34
2022-11-16T00:19:26.050Z,11.92
2022-11-16T00:21:55.011Z,11.50
2022-11-16T00:24:23.872Z,11.85
2022-11-16T00:26:52.249Z,12.05
2022-11-16T00:29:22.109Z,12.34
2022-11-16T00:31:51.477Z,11.94
2022-11-16T00:34:21.422Z,11.89
2022-11-16T00:36:49.914Z,12.07
2022-11-16T00:39:19.175Z,12.18
2022-11-16T00:41:47.947Z,12.29
2022-11-16T00:44:16.340Z,12.31
2022-11-16T00:46:44.633Z,12.42
2022-11-16T00:49:12.621Z,12.52
2022-11-16T00:51:41.903Z,12.60
2022-11-16T00:54:10.820Z,12.69
2022-11-16T00:56:40.732Z,12.63
2022-11-16T00:59:09.325Z,12.66
2022-11-16T01:01:37.421Z,12.70
2022-11-16T01:04:06.686Z,12.71
2022-11-16T01:06:34.656Z,12.76
2022-11-16T01:09:04.096Z,12.76
2022-11-16T01:11:49.854Z,12.69
2022-11-16T01:14:17.910Z,12.79
2022-11-16T01:16:45.928Z,12.80
2022-11-16T01:19:13.924Z,12.81
2022-11-16T01:21:41.988Z,12.50
2022-11-16T01:24:11.306Z,11.87
2022-11-16T01:26:39.330Z,11.17
2022-11-16T01:29:07.255Z,11.67
2022-11-16T01:31:40.768Z,11.81
2022-11-16T01:34:09.243Z,12.17
2022-11-16T01:36:37.322Z,12.23
2022-11-16T01:39:06.753Z,12.13
2022-11-16T01:41:45.932Z,11.83
2022-11-16T01:44:56.290Z,11.80
2022-11-16T01:47:24.359Z,11.98
2022-11-16T01:49:57.075Z,12.22
2022-11-16T01:52:34.951Z,12.16
2022-11-16T01:55:04.351Z,11.77
2022-11-16T01:57:48.342Z,11.83
2022-11-16T02:00:18.156Z,12.01
2022-11-16T02:02:57.020Z,12.10
2022-11-16T02:05:55.369Z,11.97
2022-11-16T02:08:54.422Z,11.75
2022-11-16T02:11:39.288Z,12.10
2022-11-16T02:14:25.922Z,12.24
2022-11-16T02:17:02.484Z,12.36
2022-11-16T02:20:04.058Z,12.31
2022-11-16T02:22:49.401Z,12.47
2022-11-16T02:25:24.084Z,12.62
2022-11-16T02:28:08.041Z,12.53
2022-11-16T02:30:42.245Z,12.11
2022-11-16T02:33:13.358Z,12.14
2022-11-16T02:35:46.222Z,12.13
2022-11-16T02:38:19.088Z,12.36
2022-11-16T02:40:51.034Z,12.37
2022-11-16T02:43:27.628Z,12.19
2022-11-16T02:46:01.388Z,12.31
2022-11-16T02:48:35.764Z,12.34
2022-11-16T02:51:06.546Z,12.45
2022-11-16T02:53:40.388Z,12.50
2022-11-16T02:56:13.206Z,12.55
2022-11-16T02:58:41.953Z,12.64
2022-11-16T03:01:16.976Z,12.69
2022-11-16T03:03:53.053Z,12.73
2022-11-16T03:06:24.407Z,12.76
2022-11-16T03:09:00.885Z,12.78
2022-11-16T03:11:49.534Z,12.80
2022-11-16T03:14:22.168Z,12.79
2022-11-16T03:16:54.915Z,12.82
2022-11-16T03:19:30.677Z,12.75
2022-11-16T03:22:04.840Z,12.58
2022-11-16T03:24:33.623Z,12.58
2022-11-16T03:27:06.908Z,12.67
2022-11-16T03:29:41.795Z,12.81
2022-11-16T03:32:18.333Z,12.81
2022-11-16T03:34:55.774Z,12.70
2022-11-16T03:37:26.082Z,12.71
2022-11-16T03:39:54.741Z,12.80
2022-11-16T03:42:26.835Z,12.85
2022-11-16T03:44:56.146Z,12.85
2022-11-16T03:47:27.498Z,12.85
2022-11-16T03:49:55.425Z,12.88
2022-11-16T03:52:25.624Z,12.88
2022-11-16T03:54:53.675Z,13.11
2022-11-16T03:57:21.859Z,13.08
2022-11-16T03:59:55.552Z,13.10
2022-11-16T04:02:23.672Z,13.07
2022-11-16T04:05:13.076Z,13.16
2022-11-16T04:07:58.518Z,13.10
2022-11-16T04:10:44.305Z,13.08
2022-11-16T04:13:32.213Z,13.13
2022-11-16T04:16:17.632Z,13.07
2022-11-16T04:19:03.954Z,13.19
2022-11-16T04:21:55.670Z,12.99
2022-11-16T04:24:31.605Z,12.78
2022-11-16T04:27:21.975Z,12.64
2022-11-16T04:29:50.251Z,12.65
2022-11-16T04:32:36.153Z,12.73
2022-11-16T04:35:21.735Z,12.57
2022-11-16T04:37:52.618Z,12.73
2022-11-16T04:40:38.981Z,12.69
2022-11-16T04:43:06.289Z,12.67
2022-11-16T04:45:55.894Z,12.77
2022-11-16T04:48:27.580Z,12.64
2022-11-16T04:50:56.225Z,12.67
2022-11-16T04:53:28.025Z,12.69
2022-11-16T04:56:09.616Z,12.83
2022-11-16T04:58:38.800Z,12.85
2022-11-16T05:01:06.920Z,12.73
2022-11-16T05:03:35.218Z,12.85
2022-11-16T05:06:03.147Z,12.85
2022-11-16T05:08:32.745Z,12.90
2022-11-16T05:11:01.472Z,12.80
2022-11-16T05:13:29.973Z,12.72
2022-11-16T05:15:58.242Z,12.73
2022-11-16T05:18:27.078Z,12.70
2022-11-16T05:21:02.825Z,12.68
2022-11-16T05:23:55.678Z,12.71
2022-11-16T05:26:26.043Z,12.59
2022-11-16T05:28:55.374Z,12.63
2022-11-16T05:31:23.328Z,12.67
2022-11-16T05:33:51.390Z,12.48
2022-11-16T05:36:20.288Z,12.52
2022-11-16T05:38:52.714Z,12.53
2022-11-16T05:41:25.431Z,12.62
2022-11-16T05:43:55.446Z,12.64
2022-11-16T05:46:23.865Z,12.54
2022-11-16T05:48:52.336Z,12.51
2022-11-16T05:51:20.272Z,12.55
2022-11-16T05:53:49.905Z,12.46
2022-11-16T05:56:22.359Z,12.44
2022-11-16T05:58:51.160Z,12.33
2022-11-16T06:01:19.143Z,12.31
2022-11-16T06:03:47.153Z,12.24
2022-11-16T06:09:02.073Z,12.33
2022-11-16T06:11:35.840Z,12.22
2022-11-16T06:14:05.512Z,12.37
2022-11-16T06:16:34.651Z,12.28
2022-11-16T06:19:06.493Z,12.18
2022-11-16T06:21:34.498Z,12.25
2022-11-16T06:24:09.336Z,12.42
2022-11-16T06:26:37.789Z,12.44
2022-11-16T06:29:06.757Z,12.39
2022-11-16T06:31:36.035Z,12.37
2022-11-16T06:34:04.523Z,12.38
2022-11-16T06:36:32.484Z,12.29
2022-11-16T06:39:01.375Z,12.36
2022-11-16T06:41:37.583Z,12.34
2022-11-16T06:44:09.495Z,12.27
2022-11-16T06:46:41.453Z,12.33
2022-11-16T06:49:09.699Z,12.26
2022-11-16T06:51:37.779Z,12.35
2022-11-16T06:54:06.577Z,12.39
2022-11-16T06:56:36.668Z,12.33
2022-11-16T06:59:04.793Z,12.19
2022-11-16T07:01:32.956Z,12.14
2022-11-16T07:04:06.288Z,12.25
2022-11-16T07:06:34.347Z,12.21
2022-11-16T07:09:02.317Z,12.07
2022-11-16T07:11:33.393Z,12.12
2022-11-16T07:14:03.486Z,12.12
2022-11-16T07:16:31.614Z,11.94
2022-11-16T07:19:02.827Z,11.78
2022-11-16T07:21:33.288Z,11.71
2022-11-16T07:24:05.066Z,11.75
2022-11-16T07:26:33.638Z,11.83
2022-11-16T07:29:11.328Z,11.71
2022-11-16T07:31:43.795Z,11.80
2022-11-16T07:34:30.076Z,11.76
2022-11-16T07:37:10.364Z,11.73
2022-11-16T07:39:38.413Z,11.85
2022-11-16T07:42:11.900Z,11.87
2022-11-16T07:45:03.589Z,11.60
2022-11-16T07:47:38.433Z,11.58
2022-11-16T07:50:10.941Z,11.26
2022-11-16T07:52:39.258Z,11.46
2022-11-16T07:55:10.894Z,11.38
2022-11-16T07:57:39.799Z,11.00
2022-11-16T08:00:11.966Z,11.14
2022-11-16T08:02:46.668Z,10.88
2022-11-16T08:05:19.201Z,11.03
2022-11-16T08:07:49.473Z,11.21
2022-11-16T08:10:19.143Z,11.04
2022-11-16T08:12:47.235Z,10.95
2022-11-16T08:15:16.829Z,10.90
2022-11-16T08:17:47.118Z,10.87
2022-11-16T08:20:15.539Z,10.72
2022-11-16T08:22:43.602Z,10.66
2022-11-16T08:25:13.577Z,10.72
2022-11-16T08:27:43.811Z,10.63
2022-11-16T08:30:13.401Z,10.77
2022-11-16T08:32:42.884Z,10.77
2022-11-16T08:35:12.145Z,10.71
2022-11-16T08:40:27.791Z,10.52
2022-11-16T08:42:57.194Z,10.74
2022-11-16T08:45:25.210Z,10.61
2022-11-16T08:48:03.620Z,10.81
2022-11-16T08:50:55.413Z,10.65
2022-11-16T08:53:24.216Z,10.62
2022-11-16T08:55:53.025Z,10.63
2022-11-16T08:58:21.099Z,10.59
2022-11-16T09:00:49.074Z,10.48
2022-11-16T09:03:18.378Z,10.49
2022-11-16T09:05:46.855Z,10.68
2022-11-16T09:08:14.754Z,10.59
2022-11-16T09:10:42.652Z,10.56
2022-11-16T09:13:10.622Z,10.52
2022-11-16T09:15:38.548Z,10.43
2022-11-16T09:18:06.532Z,10.44
2022-11-16T09:20:35.798Z,10.41
2022-11-16T09:23:03.708Z,10.65
2022-11-16T09:25:31.623Z,10.55
2022-11-16T09:27:59.801Z,10.68
2022-11-16T09:30:27.755Z,10.82
2022-11-16T09:32:55.658Z,10.75
2022-11-16T09:35:24.175Z,10.70
2022-11-16T09:37:53.447Z,10.89
2022-11-16T09:40:21.580Z,10.79
2022-11-16T09:43:02.150Z,10.83
2022-11-16T09:45:38.918Z,10.67
2022-11-16T09:48:12.422Z,10.71
2022-11-16T09:50:47.268Z,10.81
2022-11-16T09:53:25.460Z,10.66
2022-11-16T09:55:55.217Z,10.65
2022-11-16T09:58:30.502Z,10.72
2022-11-16T10:01:06.220Z,10.66
2022-11-16T10:03:42.773Z,10.41
2022-11-16T10:06:21.034Z,10.61
2022-11-16T10:08:51.992Z,10.40
2022-11-16T10:11:33.333Z,10.33
2022-11-16T10:14:12.333Z,10.35
2022-11-16T10:16:49.924Z,10.29
2022-11-16T10:19:30.565Z,10.47
2022-11-16T10:22:06.320Z,10.42
2022-11-16T10:24:46.189Z,10.61
2022-11-16T10:27:30.210Z,10.64
2022-11-16T10:30:08.187Z,10.65
2022-11-16T10:32:39.785Z,10.75
2022-11-16T10:35:17.130Z,10.87
2022-11-16T10:37:48.644Z,10.82
2022-11-16T10:40:22.285Z,10.79
2022-11-16T10:42:58.888Z,10.95
2022-11-16T10:45:33.301Z,11.02
2022-11-16T10:48:12.427Z,10.96
2022-11-16T10:50:45.237Z,10.94
2022-11-16T10:53:15.441Z,11.10
2022-11-16T10:55:44.757Z,10.88
2022-11-16T10:58:13.255Z,10.79
2022-11-16T11:00:47.177Z,10.69
2022-11-16T11:03:16.058Z,10.81
2022-11-16T11:05:54.534Z,10.82
2022-11-16T11:08:28.339Z,10.65
2022-11-16T11:11:23.250Z,10.74
2022-11-16T11:14:05.931Z,10.67
2022-11-16T11:16:33.873Z,10.67
2022-11-16T11:19:19.839Z,10.72
2022-11-16T11:21:48.603Z,10.71
2022-11-16T11:24:48.165Z,10.74
2022-11-16T11:27:08.140Z,10.58
2022-11-16T11:29:38.707Z,10.60
2022-11-16T11:32:09.179Z,10.43
2022-11-16T11:34:42.835Z,10.56
2022-11-16T11:37:16.657Z,10.55
2022-11-16T11:39:44.799Z,10.43
2022-11-16T11:42:24.742Z,10.37
2022-11-16T11:44:59.091Z,10.49
2022-11-16T11:48:00.349Z,10.29
2022-11-16T11:50:38.141Z,10.24
2022-11-16T11:53:08.998Z,10.33
2022-11-16T11:55:36.921Z,10.28
2022-11-16T11:58:08.773Z,10.17
2022-11-16T12:00:49.045Z,10.44
2022-11-16T12:03:44.413Z,10.56
2022-11-16T12:06:20.524Z,10.41
2022-11-16T12:09:05.919Z,10.51
2022-11-16T12:11:45.714Z,10.63
2022-11-16T12:14:32.107Z,10.73
2022-11-16T12:17:11.161Z,10.65
2022-11-16T12:19:59.515Z,10.68
2022-11-16T12:22:50.701Z,10.49
2022-11-16T12:25:26.273Z,10.47
2022-11-16T12:28:10.607Z,10.27
2022-11-16T12:30:51.357Z,10.31
2022-11-16T12:33:31.006Z,10.23
2022-11-16T12:36:06.686Z,10.10
2022-11-16T12:38:46.951Z,9.89
2022-11-16T12:41:48.479Z,10.37
2022-11-16T12:44:20.792Z,10.14
2022-11-16T12:46:59.417Z,10.28
2022-11-16T12:49:50.149Z,10.25
2022-11-16T12:52:35.259Z,10.13
2022-11-16T12:55:28.127Z,10.23
2022-11-16T12:58:20.427Z,10.05
2022-11-16T13:01:02.767Z,10.09
2022-11-16T13:03:39.542Z,10.17
2022-11-16T13:06:11.130Z,10.06
2022-11-16T13:08:51.106Z,10.18
2022-11-16T13:11:23.971Z,10.14
2022-11-16T13:13:59.205Z,10.16
2022-11-16T13:16:28.692Z,10.23
2022-11-16T13:18:59.187Z,9.99
2022-11-16T13:21:43.705Z,10.11
2022-11-16T13:24:28.387Z,9.97
2022-11-16T13:27:06.125Z,9.98
2022-11-16T13:29:41.945Z,10.10
2022-11-16T13:32:18.133Z,10.21
2022-11-16T13:34:47.963Z,10.02
2022-11-16T13:37:45.164Z,10.09
2022-11-16T13:40:26.157Z,9.96
2022-11-16T13:43:06.265Z,9.93
2022-11-16T13:45:39.064Z,9.78
2022-11-16T13:48:18.842Z,9.84
2022-11-16T13:50:54.556Z,9.75
2022-11-16T13:54:25.095Z,9.88
2022-11-16T13:56:18.201Z,9.62
2022-11-16T13:58:48.600Z,9.80
2022-11-16T14:01:17.454Z,9.57
2022-11-16T14:03:46.945Z,9.82
2022-11-16T14:06:52.278Z,9.80
2022-11-16T14:09:44.120Z,9.74
2022-11-16T14:13:00.564Z,9.86
2022-11-16T14:15:34.376Z,9.94
2022-11-16T14:18:24.412Z,9.87
2022-11-16T14:21:10.756Z,9.80
2022-11-16T14:23:57.787Z,9.61
2022-11-16T14:26:38.486Z,9.56
2022-11-16T14:29:21.372Z,9.50
2022-11-16T14:31:52.948Z,9.68
2022-11-16T14:34:23.780Z,9.63
2022-11-16T14:36:53.746Z,9.45
2022-11-16T14:39:34.579Z,9.65
2022-11-16T14:42:05.759Z,9.57
2022-11-16T14:44:38.956Z,9.54
2022-11-16T14:47:17.106Z,9.44
2022-11-16T14:49:48.035Z,9.46
2022-11-16T14:52:20.051Z,9.67
2022-11-16T14:54:53.132Z,9.74
2022-11-16T14:57:22.895Z,9.80
2022-11-16T14:59:51.283Z,9.74
2022-11-16T15:02:23.386Z,9.72
2022-11-16T15:04:53.921Z,9.42
2022-11-16T15:07:25.695Z,9.65
2022-11-16T15:09:56.371Z,9.59
2022-11-16T15:12:42.665Z,9.76
2022-11-16T15:15:16.978Z,9.65
2022-11-16T15:17:47.695Z,9.80
2022-11-16T15:20:20.198Z,9.86
2022-11-16T15:22:54.461Z,9.53
2022-11-16T15:25:29.450Z,9.68
2022-11-16T15:27:59.461Z,9.61
2022-11-16T15:30:29.762Z,9.70
2022-11-16T15:32:58.288Z,9.68
2022-11-16T15:35:30.214Z,9.84
2022-11-16T15:38:08.366Z,9.56
2022-11-16T15:40:36.945Z,9.48
2022-11-16T15:43:06.749Z,9.53
2022-11-16T15:45:35.415Z,9.38
2022-11-16T15:48:04.978Z,9.70
2022-11-16T15:50:33.209Z,9.48
2022-11-16T15:53:01.187Z,9.62
2022-11-16T15:55:37.754Z,9.57
2022-11-16T15:58:13.197Z,9.46
2022-11-16T16:00:41.976Z,9.57
2022-11-16T16:03:21.426Z,9.57
2022-11-16T16:05:49.964Z,9.41
2022-11-16T16:08:32.764Z,9.53
2022-11-16T16:11:28.784Z,9.39
2022-11-16T16:14:01.689Z,9.09
2022-11-16T16:16:36.133Z,9.30
2022-11-16T16:19:09.727Z,9.46
2022-11-16T16:21:43.843Z,9.06
2022-11-16T16:24:33.299Z,9.27
2022-11-16T16:27:02.615Z,9.09
2022-11-16T16:29:30.556Z,9.12
2022-11-16T16:31:58.522Z,9.11
2022-11-16T16:34:26.435Z,8.99
2022-11-16T16:36:54.370Z,8.97
2022-11-16T16:39:22.262Z,8.94
2022-11-16T16:41:50.190Z,8.92
2022-11-16T16:44:19.478Z,8.95
2022-11-16T16:46:47.459Z,9.06
2022-11-16T16:49:15.354Z,9.05
2022-11-16T16:51:43.320Z,9.01
2022-11-16T16:54:14.825Z,8.92
2022-11-16T16:56:42.780Z,9.15
2022-11-16T16:59:11.588Z,9.08
2022-11-16T17:01:41.608Z,8.78
2022-11-16T17:04:09.819Z,8.63
2022-11-16T17:06:39.262Z,9.08
2022-11-16T17:09:10.361Z,8.98
2022-11-16T17:11:38.290Z,8.80
2022-11-16T17:14:07.887Z,8.92
2022-11-16T17:16:35.905Z,8.53
2022-11-16T17:19:06.196Z,8.62
2022-11-16T17:21:34.152Z,8.49
2022-11-16T17:24:02.063Z,8.43
2022-11-16T17:26:30.050Z,8.38
2022-11-16T17:28:58.871Z,8.15
2022-11-16T17:31:28.015Z,8.31
2022-11-16T17:33:57.533Z,8.17
2022-11-16T17:36:26.916Z,8.32
2022-11-16T17:38:54.866Z,8.15
2022-11-16T17:41:24.191Z,8.07
2022-11-16T17:43:53.926Z,8.22
2022-11-16T17:46:23.520Z,7.84
2022-11-16T17:48:52.078Z,7.89
2022-11-16T17:51:22.011Z,7.61
2022-11-16T17:53:51.529Z,7.59
2022-11-16T17:56:21.195Z,7.58
2022-11-16T17:58:50.309Z,7.66
2022-11-16T18:01:18.706Z,7.92
2022-11-16T18:03:46.799Z,7.97
2022-11-16T18:06:17.102Z,7.91
2022-11-16T18:08:45.710Z,7.78
2022-11-16T18:11:16.816Z,7.44
2022-11-16T18:13:45.603Z,7.93
2022-11-16T18:16:15.624Z,7.82
2022-11-16T18:18:44.620Z,7.72
2022-11-16T18:21:19.893Z,7.47
2022-11-16T18:23:48.461Z,7.61
2022-11-16T18:26:20.615Z,7.58
2022-11-16T18:28:49.014Z,7.75
2022-11-16T18:31:18.196Z,7.33
2022-11-16T18:33:46.556Z,7.33
2022-11-16T18:36:14.510Z,7.24
2022-11-16T18:38:42.740Z,7.33
2022-11-16T18:41:20.200Z,7.13
2022-11-16T18:43:53.358Z,7.51
2022-11-16T18:46:23.132Z,7.35
2022-11-16T18:48:51.653Z,7.59
2022-11-16T18:51:20.862Z,7.54
2022-11-16T18:53:48.862Z,7.43
2022-11-16T18:56:20.712Z,7.06
2022-11-16T18:58:51.935Z,7.10
2022-11-16T19:01:22.091Z,6.63
2022-11-16T19:03:50.592Z,6.59
2022-11-16T19:06:18.763Z,6.67
2022-11-16T19:08:53.735Z,6.57
2022-11-16T19:11:25.809Z,6.35
2022-11-16T19:13:55.858Z,6.88
2022-11-16T19:16:25.526Z,6.97
2022-11-16T19:18:53.613Z,7.20
2022-11-16T19:21:22.984Z,6.97
2022-11-16T19:23:53.150Z,7.00
2022-11-16T19:26:23.210Z,6.92
2022-11-16T19:28:53.949Z,7.18
2022-11-16T19:31:23.296Z,7.02
2022-11-16T19:33:54.752Z,6.99
2022-11-16T19:36:23.367Z,7.24
2022-11-16T19:38:51.723Z,7.06
2022-11-16T19:41:22.519Z,7.01
2022-11-16T19:43:52.875Z,7.37
2022-11-16T19:46:21.594Z,7.17
2022-11-16T19:48:50.423Z,7.09
2022-11-16T19:51:20.231Z,7.44
2022-11-16T19:53:48.474Z,7.40
2022-11-16T19:56:18.453Z,7.47
2022-11-16T19:58:46.631Z,7.14
2022-11-16T20:01:18.120Z,7.24
2022-11-16T20:03:46.829Z,7.33
2022-11-16T20:06:16.096Z,7.23
2022-11-16T20:08:48.510Z,7.40
2022-11-16T20:11:18.163Z,7.07
2022-11-16T20:13:46.184Z,7.07
2022-11-16T20:16:16.198Z,7.31
2022-11-16T20:18:45.217Z,7.22
2022-11-16T20:21:17.674Z,7.12
2022-11-16T20:23:45.776Z,7.15
2022-11-16T20:26:14.657Z,7.09
2022-11-16T20:28:44.140Z,6.94
2022-11-16T20:31:13.885Z,7.18
2022-11-16T20:33:43.893Z,7.12
2022-11-16T20:36:13.045Z,7.02
2022-11-16T20:38:41.243Z,6.98
2022-11-16T20:41:10.644Z,7.05
2022-11-16T20:43:40.285Z,7.03
2022-11-16T20:46:08.865Z,6.88
2022-11-16T20:48:37.272Z,6.70
2022-11-16T20:51:07.649Z,6.87
2022-11-16T20:53:36.393Z,7.00
2022-11-16T20:56:07.619Z,6.93
2022-11-16T20:58:36.245Z,6.92
2022-11-16T21:01:05.687Z,6.64
2022-11-16T21:03:34.416Z,6.11
2022-11-16T21:06:02.916Z,6.57
2022-11-16T21:08:32.410Z,6.55
2022-11-16T21:11:00.466Z,6.54
2022-11-16T21:13:45.764Z,6.72
2022-11-16T21:16:15.962Z,6.61
2022-11-16T21:18:43.921Z,6.57
2022-11-16T21:21:13.535Z,6.82
2022-11-16T21:23:47.298Z,6.86
2022-11-16T21:26:16.365Z,7.00
2022-11-16T21:28:44.833Z,6.89
2022-11-16T21:31:14.486Z,6.81
2022-11-16T21:33:43.693Z,6.79
2022-11-16T21:36:13.117Z,7.01
2022-11-16T21:38:42.782Z,7.04
2022-11-16T21:41:11.726Z,6.49
2022-11-16T21:43:44.325Z,6.32
2022-11-16T21:46:13.852Z,6.69
2022-11-16T21:48:42.129Z,6.92
2022-11-16T21:51:12.041Z,6.72
2022-11-16T21:53:40.682Z,6.72
2022-11-16T21:56:13.878Z,6.58
2022-11-16T21:58:42.212Z,6.86
2022-11-16T22:01:11.733Z,6.82
2022-11-16T22:03:40.102Z,6.98
2022-11-16T22:06:30.019Z,6.94
2022-11-16T22:08:58.022Z,6.51
2022-11-16T22:11:27.390Z,6.85
2022-11-16T22:13:55.299Z,6.66
2022-11-16T22:16:23.747Z,6.91
2022-11-16T22:18:52.106Z,6.63
2022-11-16T22:21:20.107Z,6.90
2022-11-16T22:23:48.060Z,6.72
2022-11-16T22:26:16.040Z,6.67
2022-11-16T22:28:45.513Z,6.61
2022-11-16T22:31:15.090Z,6.76
2022-11-16T22:33:43.374Z,6.67
2022-11-16T22:36:13.419Z,6.58
2022-11-16T22:38:41.366Z,6.45
2022-11-16T22:41:10.062Z,6.53
2022-11-16T22:43:39.135Z,6.42
2022-11-16T22:46:08.735Z,6.17
2022-11-16T22:48:38.726Z,6.41
2022-11-16T22:51:08.217Z,6.26
2022-11-16T22:53:36.704Z,6.57
2022-11-16T22:56:09.084Z,6.51
2022-11-16T22:58:38.121Z,6.39
2022-11-16T23:01:09.556Z,6.42
2022-11-16T23:03:38.741Z,6.53
2022-11-16T23:06:07.495Z,6.20
2022-11-16T23:08:36.358Z,6.27
2022-11-16T23:11:23.371Z,6.56
2022-11-16T23:14:10.190Z,6.59
2022-11-16T23:16:40.192Z,6.59
2022-11-16T23:19:28.933Z,6.38
2022-11-16T23:22:15.425Z,6.77
2022-11-16T23:25:01.188Z,6.77
2022-11-16T23:27:35.618Z,6.62
2022-11-16T23:30:12.143Z,6.33
2022-11-16T23:32:42.394Z,6.32
2022-11-16T23:35:11.498Z,6.48
2022-11-16T23:37:51.733Z,6.21
2022-11-16T23:40:19.988Z,6.21
2022-11-16T23:43:05.655Z,6.40
2022-11-16T23:45:33.600Z,6.30
2022-11-16T23:48:03.234Z,6.45
2022-11-16T23:50:31.203Z,6.63
2022-11-16T23:52:59.160Z,6.27
2022-11-16T23:55:27.820Z,6.11
2022-11-16T23:57:55.988Z,6.24
